Yaxian, China
Current Conditions -  °F | °C
As of 7:00 AM on Sunday 21 Dec 2014 (Local Time) from ZJSY Reporting Station
Overcast Overcast  
Wind Chill: 68°   Ceiling: 5000
Heat Index: 68°   Visibility: 6mi
Dew Point: 63°   Wind: 2mph
Humidity: 83%   Direction: NA
Pressure: 30.03"   Gusts: NA
Location:  18.23°N, 109.52°E
Report Text: ZJSY 202300Z VRB01MPS 9999 OVC050 20/17 Q1017 NOSIG
Loading
Personal Weather Stations






























Interactive Weather Map New forecast layout! Learn more

10-Day Weather Forecast

Advertisements
Track Severe Weather on mobile